Time;durP1;ratioP1;P1;durP2;ratioP2;P2;SDS_P1;SDS_P2;PMS_P1;PMS_P2;Temp;Humidity;BMP_temperature;BMP_pressure;BME280_temperature;BME280_humidity;BME280_pressure;Samples;Min_cycle;Max_cycle;Signal;HPM_P1;HPM_P2
2022/12/20 00:02:45;;;;;;;5.93;5.25;;;;;;;9.98;100.00;101084.63;10537026;28;20090;-65
2022/12/20 00:07:47;;;;;;;6.03;4.57;;;;;;;10.06;100.00;101090.41;10537415;28;20048;-67
2022/12/20 00:12:49;;;;;;;4.00;3.80;;;;;;;10.09;100.00;101092.09;10534054;28;20105;-64
2022/12/20 00:17:52;;;;;;;4.68;4.38;;;;;;;10.14;100.00;101097.97;10536171;28;20462;-68
2022/12/20 00:22:54;;;;;;;4.22;3.85;;;;;;;10.09;100.00;101077.28;10536540;28;20507;-65
2022/12/20 00:27:56;;;;;;;7.00;6.22;;;;;;;10.14;100.00;101077.13;10536534;28;20062;-68
2022/12/20 00:32:59;;;;;;;4.72;4.43;;;;;;;10.29;98.75;101068.72;10536081;28;20643;-65
2022/12/20 00:38:01;;;;;;;4.93;4.55;;;;;;;10.24;99.10;101070.66;10535636;28;20048;-64
2022/12/20 00:43:03;;;;;;;4.32;4.03;;;;;;;10.34;98.71;101057.25;10533576;28;20484;-65
2022/12/20 00:48:07;;;;;;;;;;;;;;;10.27;99.74;101044.44;10537157;28;20151;-64
2022/12/20 00:53:09;;;;;;;3.65;3.38;;;;;;;10.34;98.86;101050.31;10535819;28;19927;-63
2022/12/20 00:58:13;;;;;;;;;;;;;;;10.44;98.22;101058.63;10535743;28;20097;-66
2022/12/20 01:03:16;;;;;;;4.38;3.45;;;;;;;10.42;99.58;101061.28;10535212;28;20011;-64
2022/12/20 01:08:18;;;;;;;4.72;3.60;;;;;;;10.21;100.00;101049.91;10537077;28;20101;-66
2022/12/20 01:13:19;;;;;;;3.67;3.15;;;;;;;10.15;100.00;101060.56;10541004;28;20044;-66
2022/12/20 01:18:23;;;;;;;8.23;4.57;;;;;;;10.04;100.00;101074.84;10543112;28;20412;-66
2022/12/20 01:23:24;;;;;;;9.48;8.88;;;;;;;10.02;100.00;101060.16;10542860;28;20047;-65
2022/12/20 01:28:29;;;;;;;9.15;8.45;;;;;;;9.65;100.00;101062.34;10543110;28;20066;-66
2022/12/20 01:33:32;;;;;;;7.75;7.05;;;;;;;9.52;100.00;101059.31;10542889;28;20499;-69
2022/12/20 01:38:34;;;;;;;6.25;5.60;;;;;;;9.39;100.00;101051.06;10542305;28;20533;-66
2022/12/20 01:43:51;;;;;;;8.70;7.05;;;;;;;9.24;100.00;101037.66;10539885;28;20066;-65
2022/12/20 01:49:00;;;;;;;7.15;6.25;;;;;;;9.10;100.00;101034.66;10541968;28;20468;-65
2022/12/20 01:54:10;;;;;;;10.93;9.77;;;;;;;9.00;100.00;101023.72;10542133;28;20063;-65
2022/12/20 01:59:13;;;;;;;22.13;20.67;;;;;;;8.98;100.00;101005.53;10542214;28;20090;-67
2022/12/20 02:04:16;;;;;;;7.47;7.05;;;;;;;8.95;100.00;101000.44;10541078;28;20044;-66
2022/12/20 02:09:19;;;;;;;20.38;19.15;;;;;;;8.96;100.00;101012.53;10540680;28;20556;-65
2022/12/20 02:14:50;;;;;;;11.05;10.25;;;;;;;8.91;100.00;101004.03;10538580;28;20093;-64
2022/12/20 02:20:29;;;;;;;6.63;6.15;;;;;;;8.86;100.00;100998.13;10540435;28;20048;-65
2022/12/20 02:26:08;;;;;;;8.13;7.63;;;;;;;8.88;100.00;100978.09;10537920;28;20561;-67
2022/12/20 02:31:19;;;;;;;13.32;12.35;;;;;;;8.95;100.00;100979.59;10540254;28;20048;-67
2022/12/20 02:36:20;;;;;;;6.88;6.45;;;;;;;8.94;100.00;100977.91;10540620;28;20044;-65
2022/12/20 02:41:29;;;;;;;8.50;7.95;;;;;;;9.06;100.00;100970.59;10540103;28;20522;-65
2022/12/20 02:46:35;;;;;;;15.80;14.93;;;;;;;9.14;100.00;100965.97;10537600;28;20480;-64
2022/12/20 02:51:40;;;;;;;6.88;6.38;;;;;;;9.29;100.00;100969.78;10539810;28;20465;-68
2022/12/20 02:56:48;;;;;;;17.98;16.95;;;;;;;9.42;100.00;100965.00;10539390;28;20040;-66
2022/12/20 03:01:55;;;;;;;12.32;11.50;;;;;;;9.51;100.00;100969.00;10538893;28;20096;-67
2022/12/20 03:07:00;;;;;;;12.68;12.05;;;;;;;9.68;100.00;100963.19;10539014;28;20054;-65
2022/12/20 03:12:03;;;;;;;15.55;14.50;;;;;;;9.65;100.00;100964.16;10536723;28;20553;-66
2022/12/20 03:17:07;;;;;;;14.57;13.77;;;;;;;9.77;100.00;100973.28;10538263;28;20131;-64
2022/12/20 03:22:08;;;;;;;18.88;17.50;;;;;;;9.92;100.00;100960.56;10538154;28;20048;-66
2022/12/20 03:27:10;;;;;;;7.20;5.97;;;;;;;10.03;100.00;100953.19;10538067;28;20059;-67
2022/12/20 03:32:14;;;;;;;15.30;14.43;;;;;;;10.14;100.00;100944.13;10537004;28;20054;-68
2022/12/20 03:37:16;;;;;;;11.70;10.98;;;;;;;10.14;100.00;100941.50;10537390;28;20048;-65
2022/12/20 03:42:18;;;;;;;;;;;;;;;10.13;100.00;100958.06;10535174;28;20056;-67
2022/12/20 03:47:21;;;;;;;6.23;5.73;;;;;;;10.26;100.00;100959.28;10536734;28;20379;-65
2022/12/20 03:52:23;;;;;;;14.40;13.35;;;;;;;10.27;100.00;100963.59;10537681;28;20079;-66
2022/12/20 03:57:24;;;;;;;6.25;5.10;;;;;;;10.24;100.00;100958.50;10536526;28;20052;-67
2022/12/20 04:02:27;;;;;;;5.18;4.85;;;;;;;10.31;100.00;100952.13;10536600;28;20056;-65
2022/12/20 04:07:29;;;;;;;5.95;5.55;;;;;;;10.31;100.00;100952.13;10536021;28;20507;-66
2022/12/20 04:12:31;;;;;;;5.32;5.05;;;;;;;10.39;100.00;100953.56;10534027;28;20044;-65
2022/12/20 04:17:34;;;;;;;26.77;24.08;;;;;;;10.50;100.00;100950.59;10535853;28;20446;-66
2022/12/20 04:22:36;;;;;;;6.57;6.05;;;;;;;10.45;100.00;100953.38;10535720;28;20100;-64
2022/12/20 04:27:37;;;;;;;5.55;5.15;;;;;;;10.44;100.00;100936.00;10536445;28;20054;-65
2022/12/20 04:32:40;;;;;;;4.80;4.43;;;;;;;10.49;100.00;100934.06;10535753;28;20549;-66
2022/12/20 04:37:42;;;;;;;5.50;5.00;;;;;;;10.48;100.00;100927.16;10536612;28;20040;-64
2022/12/20 04:42:44;;;;;;;4.90;4.63;;;;;;;10.51;100.00;100936.63;10533725;28;20048;-66
2022/12/20 04:47:47;;;;;;;6.65;6.25;;;;;;;10.51;100.00;100931.41;10544607;28;20040;-65
2022/12/20 04:58:09;;;;;;;5.25;4.78;;;;;;;10.56;100.00;100934.66;10543990;28;20082;-64
2022/12/20 05:03:13;;;;;;;4.72;4.32;;;;;;;10.65;100.00;100920.41;10544015;28;20056;-65
2022/12/20 05:08:15;;;;;;;7.40;6.80;;;;;;;10.62;100.00;100923.13;10543620;28;20048;-64
2022/12/20 05:13:17;;;;;;;7.95;7.50;;;;;;;10.51;100.00;100911.34;10541401;28;20056;-65
2022/12/20 05:18:21;;;;;;;9.48;8.77;;;;;;;10.56;100.00;100906.81;10543893;28;20040;-64
2022/12/20 05:28:47;;;;;;;4.45;4.03;;;;;;;10.38;100.00;100881.44;10521793;28;20097;-65
2022/12/20 05:33:50;;;;;;;5.28;4.90;;;;;;;10.35;100.00;100878.97;10542836;28;20576;-63
2022/12/20 05:38:52;;;;;;;4.00;3.80;;;;;;;10.34;100.00;100885.09;10542728;28;20044;-64
2022/12/20 05:43:54;;;;;;;7.90;7.43;;;;;;;10.24;100.00;100872.44;10540098;28;20048;-64
2022/12/20 05:48:57;;;;;;;4.60;4.30;;;;;;;10.26;100.00;100875.81;10541981;28;20112;-65
2022/12/20 05:53:58;;;;;;;7.03;6.50;;;;;;;10.27;100.00;100867.06;10542186;28;20121;-63
2022/12/20 05:59:00;;;;;;;13.20;12.40;;;;;;;10.37;100.00;100864.09;10542133;28;20048;-63
2022/12/20 06:04:03;;;;;;;4.78;4.22;;;;;;;10.24;100.00;100854.19;10541435;28;20086;-64
2022/12/20 06:09:05;;;;;;;4.45;4.05;;;;;;;10.25;100.00;100841.97;10541139;28;20052;-65
2022/12/20 06:14:07;;;;;;;4.75;4.18;;;;;;;10.16;100.00;100811.88;10538665;28;20108;-64
2022/12/20 06:19:10;;;;;;;7.47;7.00;;;;;;;10.16;100.00;100814.50;10541059;28;20117;-64
2022/12/20 06:24:12;;;;;;;4.75;4.45;;;;;;;10.11;100.00;100821.66;10541645;28;20044;-63
2022/12/20 06:29:16;;;;;;;5.88;4.82;;;;;;;10.11;100.00;100829.50;10540472;28;20463;-64
2022/12/20 06:34:19;;;;;;;6.75;6.28;;;;;;;10.11;100.00;100839.94;10540479;28;20054;-65
2022/12/20 06:39:22;;;;;;;18.65;17.65;;;;;;;10.17;100.00;100826.66;10540328;28;20055;-67
2022/12/20 06:44:24;;;;;;;5.43;4.30;;;;;;;10.15;100.00;100825.84;10537377;28;20068;-63
2022/12/20 06:49:28;;;;;;;7.40;6.90;;;;;;;10.19;100.00;100824.81;10539893;28;20048;-64
2022/12/20 06:54:30;;;;;;;7.85;7.35;;;;;;;10.29;100.00;100822.66;10538971;28;20083;-63
2022/12/20 06:59:32;;;;;;;4.18;3.65;;;;;;;10.27;100.00;100835.78;10538767;28;20044;-64
2022/12/20 07:04:36;;;;;;;15.68;14.82;;;;;;;10.47;100.00;100831.50;10538743;28;20085;-64
2022/12/20 07:09:40;;;;;;;3.97;3.17;;;;;;;10.44;100.00;100839.47;10537580;28;20059;-64
2022/12/20 07:14:43;;;;;;;3.78;3.47;;;;;;;10.47;100.00;100835.91;10535936;28;20097;-66
2022/12/20 07:19:46;;;;;;;4.70;2.95;;;;;;;10.49;100.00;100834.91;10537759;28;20044;-65
2022/12/20 07:24:49;;;;;;;9.85;9.35;;;;;;;10.53;100.00;100826.06;10538621;28;20062;-66
2022/12/20 07:29:51;;;;;;;3.78;3.22;;;;;;;10.52;100.00;100833.94;10537452;28;20066;-63
2022/12/20 07:34:54;;;;;;;3.70;3.38;;;;;;;10.52;100.00;100839.16;10537313;28;20048;-64
2022/12/20 07:39:56;;;;;;;4.28;3.45;;;;;;;10.53;100.00;100836.50;10537191;28;20511;-63
2022/12/20 07:44:58;;;;;;;3.70;3.50;;;;;;;10.47;100.00;100852.38;10535746;28;20058;-65
2022/12/20 07:50:01;;;;;;;3.63;3.20;;;;;;;10.53;100.00;100852.13;10538080;28;20048;-64
2022/12/20 07:55:09;;;;;;;4.93;3.25;;;;;;;10.46;100.00;100850.69;10536790;28;20526;-64
2022/12/20 08:00:13;;;;;;;3.40;3.13;;;;;;;10.48;100.00;100859.31;10536707;28;20393;-64
2022/12/20 08:05:18;;;;;;;4.68;3.17;;;;;;;10.45;100.00;100867.28;10536796;28;20047;-65
2022/12/20 08:10:20;;;;;;;8.68;8.18;;;;;;;10.29;100.00;100859.19;10537141;28;20058;-64
2022/12/20 08:15:23;;;;;;;6.80;6.40;;;;;;;10.33;100.00;100857.31;10533898;28;20047;-66
2022/12/20 08:20:27;;;;;;;5.32;4.03;;;;;;;10.27;100.00;100854.03;10535797;28;20074;-63
2022/12/20 08:25:28;;;;;;;5.53;5.13;;;;;;;10.16;100.00;100851.88;10535922;28;20415;-64
2022/12/20 08:30:30;;;;;;;12.00;11.15;;;;;;;10.03;100.00;100854.13;10536371;28;20052;-64
2022/12/20 08:35:34;;;;;;;7.57;7.18;;;;;;;9.84;100.00;100853.16;10536247;28;20149;-64
2022/12/20 08:40:36;;;;;;;17.70;16.52;;;;;;;9.81;100.00;100853.28;10535640;28;20496;-64
2022/12/20 08:45:38;;;;;;;7.47;6.97;;;;;;;9.69;100.00;100845.03;10533598;28;20055;-67
2022/12/20 08:50:41;;;;;;;47.38;44.00;;;;;;;9.71;100.00;100844.97;10535818;28;20093;-66
2022/12/20 08:55:43;;;;;;;10.10;9.50;;;;;;;9.52;100.00;100843.91;10535568;28;20040;-67
2022/12/20 09:00:45;;;;;;;10.95;10.30;;;;;;;9.42;100.00;100836.50;10535684;28;20048;-66
2022/12/20 09:05:49;;;;;;;7.72;7.22;;;;;;;9.34;100.00;100829.00;10535239;28;20106;-64
2022/12/20 09:10:52;;;;;;;20.95;19.55;;;;;;;9.28;100.00;100825.69;10535122;28;20388;-67
2022/12/20 09:15:54;;;;;;;6.70;6.22;;;;;;;9.30;100.00;100817.00;10533849;28;20132;-64
2022/12/20 09:21:02;;;;;;;7.28;6.68;;;;;;;9.29;100.00;100829.16;10535321;28;20048;-64
2022/12/20 09:26:06;;;;;;;43.78;41.03;;;;;;;9.47;100.00;100819.78;10534736;28;20393;-64
2022/12/20 09:31:15;;;;;;;7.47;6.90;;;;;;;9.56;100.00;100822.94;10539227;28;20412;-64
2022/12/20 09:36:21;;;;;;;7.18;6.65;;;;;;;9.70;100.00;100825.88;10543090;28;20044;-64
2022/12/20 09:41:32;;;;;;;9.00;8.13;;;;;;;9.77;100.00;100829.94;10542567;28;20052;-64
2022/12/20 09:46:34;;;;;;;7.38;6.70;;;;;;;9.82;100.00;100816.72;10539682;28;20519;-64
2022/12/20 09:52:18;;;;;;;7.55;7.05;;;;;;;9.90;100.00;100826.84;10542075;28;20056;-64
2022/12/20 09:57:40;;;;;;;6.20;4.90;;;;;;;9.89;100.00;100814.75;10541732;28;20051;-65
2022/12/20 10:02:42;;;;;;;;;;;;;;;9.89;100.00;100817.34;10541917;28;20082;-66
2022/12/20 10:07:59;;;;;;;5.88;5.45;;;;;;;9.97;100.00;100823.09;10541495;28;20268;-64
2022/12/20 10:13:21;;;;;;;7.20;6.72;;;;;;;10.05;100.00;100810.59;10538704;28;20048;-65
2022/12/20 10:18:45;;;;;;;5.78;5.38;;;;;;;10.25;100.00;100810.66;10540535;28;20450;-63
2022/12/20 10:24:01;;;;;;;28.13;26.52;;;;;;;10.37;100.00;100809.31;10540743;28;20135;-65
2022/12/20 10:29:02;;;;;;;7.28;6.78;;;;;;;10.45;100.00;100811.63;10540630;28;20044;-66
2022/12/20 10:34:04;;;;;;;7.57;6.97;;;;;;;10.31;100.00;100816.47;10540551;28;20055;-65
2022/12/20 10:39:10;;;;;;;6.18;5.60;;;;;;;10.05;100.00;100815.81;10539808;28;20599;-65
2022/12/20 10:44:23;;;;;;;9.35;8.77;;;;;;;9.92;100.00;100809.38;10536650;28;20048;-64
2022/12/20 10:49:32;;;;;;;9.90;9.32;;;;;;;9.85;100.00;100802.75;10539452;28;20047;-64
2022/12/20 10:54:38;;;;;;;15.95;14.95;;;;;;;9.81;100.00;100795.94;10540049;28;20048;-64
2022/12/20 10:59:45;;;;;;;10.80;9.82;;;;;;;9.72;100.00;100794.56;10539068;28;20051;-64
2022/12/20 11:04:59;;;;;;;8.82;8.18;;;;;;;9.65;100.00;100784.34;10538850;28;20086;-63
2022/12/20 11:10:18;;;;;;;18.73;17.13;;;;;;;9.60;100.00;100785.44;10538589;28;20048;-65
2022/12/20 11:15:23;;;;;;;10.65;9.57;;;;;;;9.59;100.00;100791.56;10536246;28;20421;-64
2022/12/20 11:20:38;;;;;;;8.52;7.70;;;;;;;9.56;100.00;100781.28;10538447;28;20462;-64
2022/12/20 11:26:03;;;;;;;8.55;8.05;;;;;;;9.54;100.00;100778.72;10538017;28;20044;-63
2022/12/20 11:31:18;;;;;;;12.68;11.57;;;;;;;9.49;100.00;100783.28;10538089;28;20051;-64
2022/12/20 11:36:40;;;;;;;13.93;12.65;;;;;;;9.47;100.00;100767.69;10537957;28;20044;-65
2022/12/20 11:41:51;;;;;;;;;;;;;;;9.42;100.00;100769.66;10538425;28;20056;-65
2022/12/20 11:47:17;;;;;;;10.32;9.25;;;;;;;9.35;100.00;100771.66;10535526;28;19920;-65
2022/12/20 11:52:35;;;;;;;11.40;10.30;;;;;;;9.33;100.00;100755.22;10536847;28;20426;-64
2022/12/20 11:57:50;;;;;;;29.27;27.50;;;;;;;9.38;100.00;100749.84;10536761;28;20078;-64
2022/12/20 12:02:59;;;;;;;10.00;9.20;;;;;;;9.43;100.00;100740.06;10536599;28;20095;-64
2022/12/20 12:08:12;;;;;;;12.75;11.75;;;;;;;9.47;100.00;100744.25;10537320;28;20056;-64
2022/12/20 12:13:23;;;;;;;16.67;15.55;;;;;;;9.46;100.00;100744.31;10534236;28;20078;-63
2022/12/20 12:18:30;;;;;;;20.33;19.13;;;;;;;9.49;100.00;100745.06;10536377;28;20052;-65
2022/12/20 12:23:47;;;;;;;11.60;10.65;;;;;;;9.51;100.00;100743.22;10536240;28;20055;-64
2022/12/20 12:28:55;;;;;;;15.15;14.25;;;;;;;9.51;100.00;100737.16;10536099;28;20434;-64
2022/12/20 12:34:12;;;;;;;17.95;16.58;;;;;;;9.51;100.00;100735.41;10536589;28;20054;-63
2022/12/20 12:39:49;;;;;;;19.63;18.33;;;;;;;9.51;100.00;100744.97;10535745;28;20040;-67
2022/12/20 12:44:58;;;;;;;11.32;10.55;;;;;;;9.48;100.00;100738.13;10491396;28;20055;-65
2022/12/20 12:49:59;;;;;;;15.23;14.00;;;;;;;9.47;100.00;100740.78;10494086;28;20057;-65
2022/12/20 12:55:01;;;;;;;12.10;11.30;;;;;;;9.46;100.00;100729.53;10493998;28;20504;-65
2022/12/20 13:00:48;;;;;;;19.13;17.63;;;;;;;9.45;100.00;100729.59;10493680;28;20045;-65
2022/12/20 13:05:50;;;;;;;14.55;13.48;;;;;;;9.45;100.00;100735.66;10497907;28;20052;-65
2022/12/20 13:11:01;;;;;;;14.48;12.77;;;;;;;9.44;100.00;100725.31;10527477;28;20055;-64
2022/12/20 13:16:27;;;;;;;14.73;13.73;;;;;;;9.41;100.00;100726.25;10541036;28;20056;-65
2022/12/20 13:21:37;;;;;;;10.90;9.80;;;;;;;9.37;100.00;100724.66;10543574;28;20430;-65
2022/12/20 13:26:52;;;;;;;16.50;15.20;;;;;;;9.33;100.00;100723.09;10530862;28;20363;-65
2022/12/20 13:31:56;;;;;;;13.07;10.63;;;;;;;9.28;100.00;100731.94;10543277;28;20407;-65
2022/12/20 13:36:59;;;;;;;18.95;17.63;;;;;;;9.26;100.00;100727.69;10543160;28;20052;-64
2022/12/20 13:42:38;;;;;;;16.70;15.38;;;;;;;9.20;100.00;100728.78;10542274;28;20492;-66
2022/12/20 13:47:54;;;;;;;13.18;12.25;;;;;;;9.18;100.00;100720.22;10542660;28;20044;-65
2022/12/20 13:52:56;;;;;;;22.83;21.35;;;;;;;9.18;100.00;100724.56;10541959;28;20044;-65
2022/12/20 13:58:05;;;;;;;26.17;24.50;;;;;;;9.16;100.00;100721.19;10541914;28;20297;-66
2022/12/20 14:03:21;;;;;;;13.25;12.32;;;;;;;9.14;100.00;100721.22;10541303;28;20071;-66
2022/12/20 14:08:29;;;;;;;13.40;12.50;;;;;;;9.10;100.00;100722.25;10541274;28;20506;-68
2022/12/20 14:13:31;;;;;;;12.75;11.73;;;;;;;9.06;100.00;100725.88;10538414;28;20431;-66
2022/12/20 14:18:35;;;;;;;19.10;17.98;;;;;;;9.02;100.00;100718.19;10540849;28;20082;-67
2022/12/20 14:23:40;;;;;;;13.10;12.10;;;;;;;9.01;100.00;100716.47;10541173;28;20071;-65
2022/12/20 14:28:46;;;;;;;16.23;14.85;;;;;;;8.97;100.00;100717.50;10540547;28;20505;-66
2022/12/20 14:33:50;;;;;;;15.50;14.15;;;;;;;8.94;100.00;100722.84;10540395;28;20558;-65
2022/12/20 14:38:53;;;;;;;16.15;14.95;;;;;;;8.94;100.00;100717.63;10540107;28;20044;-64
2022/12/20 14:43:56;;;;;;;15.60;14.13;;;;;;;8.90;100.00;100716.06;10537846;28;20052;-65
2022/12/20 14:49:22;;;;;;;13.43;12.43;;;;;;;8.87;100.00;100721.38;10540048;28;20399;-64
2022/12/20 14:54:28;;;;;;;16.20;15.00;;;;;;;8.86;100.00;100723.09;10537387;28;20110;-65
2022/12/20 14:59:31;;;;;;;13.15;12.05;;;;;;;8.86;100.00;100712.69;10536385;28;20500;-65
2022/12/20 15:04:35;;;;;;;13.10;12.00;;;;;;;8.83;100.00;100698.97;10539009;28;20052;-65
2022/12/20 15:09:40;;;;;;;13.77;12.68;;;;;;;8.80;100.00;100688.66;10538345;28;20048;-66
2022/12/20 15:14:42;;;;;;;15.20;13.98;;;;;;;8.79;100.00;100684.38;10524118;28;20191;-66
2022/12/20 15:19:46;;;;;;;15.48;14.07;;;;;;;8.77;100.00;100684.44;10538625;28;20443;-66
2022/12/20 15:24:48;;;;;;;14.88;13.45;;;;;;;8.79;100.00;100689.56;10538478;28;20373;-66
2022/12/20 15:29:49;;;;;;;13.88;12.65;;;;;;;8.76;100.00;100688.78;10537920;28;20182;-66
2022/12/20 15:34:53;;;;;;;16.95;15.43;;;;;;;8.76;100.00;100688.78;10538219;28;20439;-66
2022/12/20 15:39:54;;;;;;;17.55;13.85;;;;;;;8.79;100.00;100689.56;10537776;28;20043;-68
2022/12/20 15:44:57;;;;;;;16.35;14.85;;;;;;;8.79;100.00;100686.97;10535504;28;20507;-67
2022/12/20 15:50:00;;;;;;;;;;;;;;;8.79;100.00;100689.56;10527745;28;20420;-66
2022/12/20 15:55:02;;;;;;;15.88;12.55;;;;;;;8.76;100.00;100709.59;10495507;28;19920;-65
2022/12/20 16:00:05;;;;;;;18.02;15.40;;;;;;;8.75;100.00;100694.88;10531038;28;20056;-67
2022/12/20 16:05:13;;;;;;;15.15;13.88;;;;;;;8.74;100.00;100698.41;10536875;28;20492;-66
2022/12/20 16:10:15;;;;;;;15.43;13.88;;;;;;;8.76;100.00;100696.59;10536968;28;20105;-65
2022/12/20 16:15:21;;;;;;;17.45;15.25;;;;;;;8.74;100.00;100695.81;10534241;28;20050;-65
2022/12/20 16:20:26;;;;;;;15.90;14.15;;;;;;;8.76;100.00;100690.53;10536705;28;20093;-64
2022/12/20 16:25:31;;;;;;;16.05;14.52;;;;;;;8.76;100.00;100699.19;10536878;28;20048;-64
2022/12/20 16:30:35;;;;;;;16.23;14.52;;;;;;;8.78;100.00;100695.66;10536238;28;20427;-65
2022/12/20 16:35:38;;;;;;;18.10;14.35;;;;;;;8.74;100.00;100690.59;10536609;28;20064;-66
2022/12/20 16:40:41;;;;;;;22.10;19.92;;;;;;;8.74;100.00;100693.19;10534674;28;20514;-65
2022/12/20 16:45:43;;;;;;;18.15;14.27;;;;;;;8.72;100.00;100695.00;10533023;28;20527;-64
2022/12/20 16:50:48;;;;;;;17.35;15.90;;;;;;;8.74;100.00;100698.41;10535078;28;20043;-64
2022/12/20 16:55:50;;;;;;;13.70;12.40;;;;;;;8.70;100.00;100696.81;10534440;28;20091;-65
2022/12/20 17:00:52;;;;;;;;;;;;;;;8.67;100.00;100691.72;10533874;28;20454;-65
2022/12/20 17:05:56;;;;;;;14.10;12.47;;;;;;;8.68;100.00;100685.63;10533753;28;19924;-64
2022/12/20 17:10:58;;;;;;;13.45;11.85;;;;;;;8.65;100.00;100685.72;10534115;28;20503;-64
2022/12/20 17:16:00;;;;;;;19.45;17.42;;;;;;;8.67;100.00;100677.88;10531312;28;20055;-65
2022/12/20 17:21:20;;;;;;;14.05;12.70;;;;;;;8.67;100.00;100683.91;10533529;28;20048;-64
2022/12/20 17:26:25;;;;;;;19.52;17.50;;;;;;;8.66;100.00;100678.78;10533582;28;20048;-65
2022/12/20 17:31:30;;;;;;;17.73;16.05;;;;;;;8.65;100.00;100675.31;10533673;28;20048;-66
2022/12/20 17:36:33;;;;;;;14.05;12.73;;;;;;;8.62;100.00;100678.03;10534117;28;20043;-64
2022/12/20 17:41:36;;;;;;;26.00;19.27;;;;;;;8.64;100.00;100678.81;10533636;28;20385;-65
2022/12/20 17:46:37;;;;;;;19.38;16.52;;;;;;;8.64;100.00;100691.84;10531003;28;20048;-65
2022/12/20 17:51:41;;;;;;;18.80;16.83;;;;;;;8.63;100.00;100690.16;10535219;28;20055;-66
2022/12/20 17:56:42;;;;;;;16.10;14.43;;;;;;;8.64;100.00;100694.44;10535300;28;20079;-66
2022/12/20 18:01:46;;;;;;;21.10;17.80;;;;;;;8.67;100.00;100688.28;10540556;28;20086;-66
2022/12/20 18:06:50;;;;;;;16.80;15.15;;;;;;;8.65;100.00;100690.91;10540472;28;20126;-65
2022/12/20 18:11:52;;;;;;;16.80;15.30;;;;;;;8.64;100.00;100694.44;10540384;28;20052;-66
2022/12/20 18:16:54;;;;;;;18.38;16.55;;;;;;;8.62;100.00;100685.81;10538111;28;20052;-66
2022/12/20 18:21:58;;;;;;;;;;;;;;;8.63;100.00;100688.38;10540269;28;20078;-65
2022/12/20 18:27:01;;;;;;;17.83;15.98;;;;;;;8.65;100.00;100693.53;10539937;28;19923;-66
2022/12/20 18:32:03;;;;;;;16.98;15.45;;;;;;;8.66;100.00;100690.03;10539297;28;20495;-66
2022/12/20 18:37:06;;;;;;;18.83;17.13;;;;;;;8.69;100.00;100691.69;10539629;28;20078;-66
2022/12/20 18:42:07;;;;;;;16.67;15.07;;;;;;;8.67;100.00;100689.13;10538975;28;20121;-66
2022/12/20 18:47:10;;;;;;;17.80;15.95;;;;;;;8.68;100.00;100680.41;10536024;28;20495;-66
2022/12/20 18:52:13;;;;;;;17.73;15.93;;;;;;;8.66;100.00;100697.84;10538657;28;20052;-66
2022/12/20 18:57:14;;;;;;;18.48;15.73;;;;;;;8.64;100.00;100689.22;10538260;28;20055;-66
2022/12/20 19:02:16;;;;;;;18.33;16.27;;;;;;;8.67;100.00;100691.72;10537779;28;20503;-65
2022/12/20 19:07:19;;;;;;;16.80;15.32;;;;;;;8.65;100.00;100695.28;10538146;28;20044;-65
2022/12/20 19:12:21;;;;;;;20.02;18.02;;;;;;;8.66;100.00;100684.84;10536390;28;20108;-65
2022/12/20 19:17:22;;;;;;;19.92;17.92;;;;;;;8.66;100.00;100692.66;10536973;28;20052;-66
2022/12/20 19:22:25;;;;;;;17.15;15.60;;;;;;;8.64;100.00;100689.22;10537812;28;20495;-66
2022/12/20 19:27:27;;;;;;;17.90;15.95;;;;;;;8.63;100.00;100687.53;10537613;28;20048;-65
2022/12/20 19:32:29;;;;;;;19.70;17.65;;;;;;;8.65;100.00;100688.31;10538409;28;20105;-66
2022/12/20 19:37:32;;;;;;;17.23;15.65;;;;;;;8.61;100.00;100690.19;10537829;28;20067;-65
2022/12/20 19:42:33;;;;;;;18.67;17.10;;;;;;;8.61;100.00;100697.16;10536556;28;20300;-67
2022/12/20 19:47:36;;;;;;;19.90;17.33;;;;;;;8.61;100.00;100694.53;10538409;28;20040;-66
2022/12/20 19:52:39;;;;;;;17.63;15.77;;;;;;;8.62;100.00;100709.25;10537401;28;20101;-65
2022/12/20 19:57:41;;;;;;;18.67;16.73;;;;;;;8.58;100.00;100699.84;10536416;28;20094;-66
2022/12/20 20:02:43;;;;;;;19.15;17.17;;;;;;;8.59;100.00;100707.59;10536435;28;20140;-65
2022/12/20 20:07:46;;;;;;;18.88;16.80;;;;;;;8.57;100.00;100698.16;10536355;28;20104;-66
2022/12/20 20:12:47;;;;;;;20.73;18.50;;;;;;;8.56;100.00;100696.47;10533638;28;20074;-66
2022/12/20 20:17:49;;;;;;;18.25;16.48;;;;;;;8.56;100.00;100701.69;10535813;28;20048;-65
2022/12/20 20:22:52;;;;;;;22.00;19.77;;;;;;;8.56;100.00;100701.69;10535386;28;20418;-65
2022/12/20 20:27:54;;;;;;;20.27;18.38;;;;;;;8.57;100.00;100700.75;10535588;28;20097;-65
2022/12/20 20:32:56;;;;;;;20.67;18.48;;;;;;;8.55;100.00;100700.81;10535606;28;20054;-65
2022/12/20 20:37:59;;;;;;;20.27;18.17;;;;;;;8.50;100.00;100706.16;10535654;28;20044;-65
2022/12/20 20:43:01;;;;;;;20.05;18.05;;;;;;;8.51;100.00;100704.41;10532806;28;20428;-64
2022/12/20 20:48:03;;;;;;;;;;;;;;;8.50;100.00;100705.31;10536651;28;20135;-64
2022/12/20 20:53:06;;;;;;;22.53;20.37;;;;;;;8.54;100.00;100713.88;10535778;28;20012;-66
2022/12/20 20:58:09;;;;;;;21.23;19.20;;;;;;;8.54;100.00;100709.53;10535598;28;20040;-65
2022/12/20 21:03:11;;;;;;;23.75;20.20;;;;;;;8.50;100.00;100713.13;10535232;28;20121;-66
2022/12/20 21:08:15;;;;;;;23.55;20.90;;;;;;;8.52;100.00;100721.69;10535376;28;20414;-66
2022/12/20 21:13:17;;;;;;;22.73;20.38;;;;;;;8.49;100.00;100725.25;10533390;28;20089;-65
2022/12/20 21:18:21;;;;;;;22.23;18.85;;;;;;;8.49;100.00;100737.44;10535263;28;20040;-66
2022/12/20 21:23:24;;;;;;;24.08;20.20;;;;;;;8.50;100.00;100726.97;10535665;28;20058;-67
2022/12/20 21:28:28;;;;;;;20.67;18.38;;;;;;;8.47;100.00;100719.28;10541371;28;20458;-65
2022/12/20 21:33:30;;;;;;;22.42;20.13;;;;;;;8.47;100.00;100719.28;10543027;28;20139;-65
2022/12/20 21:38:34;;;;;;;21.52;19.27;;;;;;;8.50;100.00;100719.19;10542602;28;20173;-65
2022/12/20 21:43:36;;;;;;;30.95;24.05;;;;;;;8.50;100.00;100718.31;10540337;28;20097;-66
2022/12/20 21:48:38;;;;;;;24.52;21.95;;;;;;;8.47;100.00;100714.06;10542456;28;20040;-65
2022/12/20 21:53:45;;;;;;;30.75;21.08;;;;;;;8.46;100.00;100716.72;10542428;28;20121;-65
2022/12/20 21:58:48;;;;;;;26.15;22.75;;;;;;;8.46;100.00;100719.34;10542579;28;20101;-65
2022/12/20 22:03:51;;;;;;;33.15;23.58;;;;;;;8.43;100.00;100738.50;10541816;28;20052;-65
2022/12/20 22:08:54;;;;;;;28.55;22.00;;;;;;;8.43;100.00;100729.84;10541502;28;20138;-65
2022/12/20 22:13:56;;;;;;;29.00;23.00;;;;;;;8.42;100.00;100735.94;10540175;28;20135;-65
2022/12/20 22:18:59;;;;;;;26.38;21.55;;;;;;;8.40;100.00;100735.13;10541088;28;20043;-66
2022/12/20 22:24:03;;;;;;;28.23;23.33;;;;;;;8.37;100.00;100733.50;10541223;28;20044;-66
2022/12/20 22:29:06;;;;;;;33.65;24.27;;;;;;;8.37;100.00;100741.31;10541011;28;20059;-65
2022/12/20 22:34:08;;;;;;;32.95;22.63;;;;;;;8.33;100.00;100745.78;10540439;28;20044;-66
2022/12/20 22:39:13;;;;;;;29.40;21.55;;;;;;;8.28;100.00;100745.06;10539438;28;20036;-65
2022/12/20 22:44:14;;;;;;;39.28;26.30;;;;;;;8.25;100.00;100735.63;10537617;28;20149;-65
2022/12/20 22:49:17;;;;;;;35.20;23.00;;;;;;;8.22;100.00;100746.13;10540076;28;20492;-66
2022/12/20 22:54:20;;;;;;;41.03;24.23;;;;;;;8.18;100.00;100757.53;10539581;28;20071;-65
2022/12/20 22:59:22;;;;;;;35.15;23.48;;;;;;;8.13;100.00;100751.63;10539915;28;20044;-65
2022/12/20 23:04:24;;;;;;;36.33;23.70;;;;;;;8.14;100.00;100742.09;10539168;28;20086;-65
2022/12/20 23:09:27;;;;;;;35.95;24.58;;;;;;;8.12;100.00;100740.38;10539150;28;20499;-65
2022/12/20 23:25:09;;;;;;;48.72;26.23;;;;;;;8.03;100.00;100745.91;10504418;28;20052;-66